sensor_id;sensor_type;location;lat;lon;timestamp;temperature;humidity
77865;DHT22;67061;48.524;9.040;2023-05-07T00:00:49;11.60;94.30
77865;DHT22;67061;48.524;9.040;2023-05-07T00:03:16;11.60;94.20
77865;DHT22;67061;48.524;9.040;2023-05-07T00:05:44;11.60;93.80
77865;DHT22;67061;48.524;9.040;2023-05-07T00:08:13;11.50;93.00
77865;DHT22;67061;48.524;9.040;2023-05-07T00:10:41;11.50;94.80
77865;DHT22;67061;48.524;9.040;2023-05-07T00:13:07;11.50;94.70
77865;DHT22;67061;48.524;9.040;2023-05-07T00:15:34;11.50;94.30
77865;DHT22;67061;48.524;9.040;2023-05-07T00:18:01;11.50;95.30
77865;DHT22;67061;48.524;9.040;2023-05-07T00:20:28;11.50;95.00
77865;DHT22;67061;48.524;9.040;2023-05-07T00:22:55;11.50;94.70
77865;DHT22;67061;48.524;9.040;2023-05-07T00:25:23;11.40;95.20
77865;DHT22;67061;48.524;9.040;2023-05-07T00:27:50;11.40;95.60
77865;DHT22;67061;48.524;9.040;2023-05-07T00:30:17;11.40;95.50
77865;DHT22;67061;48.524;9.040;2023-05-07T00:32:44;11.40;95.70
77865;DHT22;67061;48.524;9.040;2023-05-07T00:35:11;11.40;95.80
77865;DHT22;67061;48.524;9.040;2023-05-07T00:37:38;11.40;95.90
77865;DHT22;67061;48.524;9.040;2023-05-07T00:40:06;11.40;95.40
77865;DHT22;67061;48.524;9.040;2023-05-07T00:42:35;11.30;95.20
77865;DHT22;67061;48.524;9.040;2023-05-07T00:45:02;11.30;95.40
77865;DHT22;67061;48.524;9.040;2023-05-07T00:47:29;11.30;95.50
77865;DHT22;67061;48.524;9.040;2023-05-07T00:49:57;11.10;95.50
77865;DHT22;67061;48.524;9.040;2023-05-07T00:52:25;11.10;95.50
77865;DHT22;67061;48.524;9.040;2023-05-07T00:54:53;11.10;96.30
77865;DHT22;67061;48.524;9.040;2023-05-07T00:57:21;11.10;96.60
77865;DHT22;67061;48.524;9.040;2023-05-07T00:59:51;11.10;96.30
77865;DHT22;67061;48.524;9.040;2023-05-07T01:02:18;11.10;96.80
77865;DHT22;67061;48.524;9.040;2023-05-07T01:04:44;11.10;96.40
77865;DHT22;67061;48.524;9.040;2023-05-07T01:07:12;11.00;96.20
77865;DHT22;67061;48.524;9.040;2023-05-07T01:09:40;11.00;96.80
77865;DHT22;67061;48.524;9.040;2023-05-07T01:12:07;11.00;96.70
77865;DHT22;67061;48.524;9.040;2023-05-07T01:14:35;10.90;96.70
77865;DHT22;67061;48.524;9.040;2023-05-07T01:17:03;10.90;96.90
77865;DHT22;67061;48.524;9.040;2023-05-07T01:19:30;11.00;97.30
77865;DHT22;67061;48.524;9.040;2023-05-07T01:22:02;10.90;97.10
77865;DHT22;67061;48.524;9.040;2023-05-07T01:24:31;10.90;97.20
77865;DHT22;67061;48.524;9.040;2023-05-07T01:26:58;10.90;97.60
77865;DHT22;67061;48.524;9.040;2023-05-07T01:29:27;10.80;97.40
77865;DHT22;67061;48.524;9.040;2023-05-07T01:31:55;10.80;97.90
77865;DHT22;67061;48.524;9.040;2023-05-07T01:34:23;10.90;97.50
77865;DHT22;67061;48.524;9.040;2023-05-07T01:36:52;10.80;97.70
77865;DHT22;67061;48.524;9.040;2023-05-07T01:39:21;10.80;97.60
77865;DHT22;67061;48.524;9.040;2023-05-07T01:41:50;10.70;97.80
77865;DHT22;67061;48.524;9.040;2023-05-07T01:44:18;10.70;98.00
77865;DHT22;67061;48.524;9.040;2023-05-07T01:46:46;10.70;98.20
77865;DHT22;67061;48.524;9.040;2023-05-07T01:49:14;10.70;98.50
77865;DHT22;67061;48.524;9.040;2023-05-07T01:51:41;10.70;98.20
77865;DHT22;67061;48.524;9.040;2023-05-07T01:54:09;10.60;98.50
77865;DHT22;67061;48.524;9.040;2023-05-07T01:56:36;10.60;98.30
77865;DHT22;67061;48.524;9.040;2023-05-07T01:59:04;10.60;98.80
77865;DHT22;67061;48.524;9.040;2023-05-07T02:01:31;10.60;99.30
77865;DHT22;67061;48.524;9.040;2023-05-07T02:03:58;10.50;98.40
77865;DHT22;67061;48.524;9.040;2023-05-07T02:06:25;10.50;98.80
77865;DHT22;67061;48.524;9.040;2023-05-07T02:08:52;10.50;98.70
77865;DHT22;67061;48.524;9.040;2023-05-07T02:11:19;10.50;99.90
77865;DHT22;67061;48.524;9.040;2023-05-07T02:13:46;10.50;99.50
77865;DHT22;67061;48.524;9.040;2023-05-07T02:16:14;10.40;99.30
77865;DHT22;67061;48.524;9.040;2023-05-07T02:18:41;10.40;99.10
77865;DHT22;67061;48.524;9.040;2023-05-07T02:21:08;10.40;99.70
77865;DHT22;67061;48.524;9.040;2023-05-07T02:23:35;10.40;99.60
77865;DHT22;67061;48.524;9.040;2023-05-07T02:26:01;10.40;99.90
77865;DHT22;67061;48.524;9.040;2023-05-07T02:28:28;10.40;99.30
77865;DHT22;67061;48.524;9.040;2023-05-07T02:30:55;10.40;99.40
77865;DHT22;67061;48.524;9.040;2023-05-07T02:33:25;10.30;99.40
77865;DHT22;67061;48.524;9.040;2023-05-07T02:35:52;10.30;99.80
77865;DHT22;67061;48.524;9.040;2023-05-07T02:38:19;10.30;99.90
77865;DHT22;67061;48.524;9.040;2023-05-07T02:40:46;10.30;99.90
77865;DHT22;67061;48.524;9.040;2023-05-07T02:43:12;10.20;99.80
77865;DHT22;67061;48.524;9.040;2023-05-07T02:45:39;10.20;99.50
77865;DHT22;67061;48.524;9.040;2023-05-07T02:48:06;10.10;99.70
77865;DHT22;67061;48.524;9.040;2023-05-07T02:50:34;10.10;99.90
77865;DHT22;67061;48.524;9.040;2023-05-07T02:53:01;10.00;99.90
77865;DHT22;67061;48.524;9.040;2023-05-07T02:55:29;10.00;99.90
77865;DHT22;67061;48.524;9.040;2023-05-07T02:57:56;10.00;99.90
77865;DHT22;67061;48.524;9.040;2023-05-07T03:00:23;10.00;99.90
77865;DHT22;67061;48.524;9.040;2023-05-07T03:02:50;9.90;99.90
77865;DHT22;67061;48.524;9.040;2023-05-07T03:05:17;9.80;99.90
77865;DHT22;67061;48.524;9.040;2023-05-07T03:07:45;9.80;99.90
77865;DHT22;67061;48.524;9.040;2023-05-07T03:10:13;9.70;99.90
77865;DHT22;67061;48.524;9.040;2023-05-07T03:12:40;9.70;99.90
77865;DHT22;67061;48.524;9.040;2023-05-07T03:15:08;9.70;99.90
77865;DHT22;67061;48.524;9.040;2023-05-07T03:17:35;9.60;99.90
77865;DHT22;67061;48.524;9.040;2023-05-07T03:20:03;9.60;99.90
77865;DHT22;67061;48.524;9.040;2023-05-07T03:22:30;9.60;99.90
77865;DHT22;67061;48.524;9.040;2023-05-07T03:24:58;9.50;99.90
77865;DHT22;67061;48.524;9.040;2023-05-07T03:27:25;9.50;99.90
77865;DHT22;67061;48.524;9.040;2023-05-07T03:29:52;9.50;99.90
77865;DHT22;67061;48.524;9.040;2023-05-07T03:32:19;9.50;99.90
77865;DHT22;67061;48.524;9.040;2023-05-07T03:34:46;9.60;99.90
77865;DHT22;67061;48.524;9.040;2023-05-07T03:37:13;9.60;99.90
77865;DHT22;67061;48.524;9.040;2023-05-07T03:39:40;9.50;99.90
77865;DHT22;67061;48.524;9.040;2023-05-07T03:42:08;9.50;99.90
77865;DHT22;67061;48.524;9.040;2023-05-07T03:44:35;9.50;99.90
77865;DHT22;67061;48.524;9.040;2023-05-07T03:47:02;9.50;99.90
77865;DHT22;67061;48.524;9.040;2023-05-07T03:49:29;9.50;99.90
77865;DHT22;67061;48.524;9.040;2023-05-07T03:51:56;9.40;99.90
77865;DHT22;67061;48.524;9.040;2023-05-07T03:54:23;9.40;99.90
77865;DHT22;67061;48.524;9.040;2023-05-07T03:56:50;9.40;99.90
77865;DHT22;67061;48.524;9.040;2023-05-07T03:59:18;9.40;99.90
77865;DHT22;67061;48.524;9.040;2023-05-07T04:01:45;9.40;99.90
77865;DHT22;67061;48.524;9.040;2023-05-07T04:04:12;9.40;99.90
77865;DHT22;67061;48.524;9.040;2023-05-07T04:06:39;9.40;99.90
77865;DHT22;67061;48.524;9.040;2023-05-07T04:09:06;9.40;99.90
77865;DHT22;67061;48.524;9.040;2023-05-07T04:11:34;9.30;99.90
77865;DHT22;67061;48.524;9.040;2023-05-07T04:14:01;9.30;99.90
77865;DHT22;67061;48.524;9.040;2023-05-07T04:16:29;9.20;99.90
77865;DHT22;67061;48.524;9.040;2023-05-07T04:18:56;9.20;99.90
77865;DHT22;67061;48.524;9.040;2023-05-07T04:21:23;9.20;99.90
77865;DHT22;67061;48.524;9.040;2023-05-07T04:23:52;9.20;99.90
77865;DHT22;67061;48.524;9.040;2023-05-07T04:26:18;9.20;99.90
77865;DHT22;67061;48.524;9.040;2023-05-07T04:28:46;9.20;99.90
77865;DHT22;67061;48.524;9.040;2023-05-07T04:31:13;9.20;99.90
77865;DHT22;67061;48.524;9.040;2023-05-07T04:33:42;9.20;99.90
77865;DHT22;67061;48.524;9.040;2023-05-07T04:36:08;9.20;99.90
77865;DHT22;67061;48.524;9.040;2023-05-07T04:38:36;9.20;99.90
77865;DHT22;67061;48.524;9.040;2023-05-07T04:41:05;9.20;99.90
77865;DHT22;67061;48.524;9.040;2023-05-07T04:43:32;9.20;99.90
77865;DHT22;67061;48.524;9.040;2023-05-07T04:45:59;9.20;99.90
77865;DHT22;67061;48.524;9.040;2023-05-07T04:48:26;9.20;99.90
77865;DHT22;67061;48.524;9.040;2023-05-07T04:50:55;9.30;99.90
77865;DHT22;67061;48.524;9.040;2023-05-07T04:53:22;9.30;99.90
77865;DHT22;67061;48.524;9.040;2023-05-07T04:55:55;9.30;99.90
77865;DHT22;67061;48.524;9.040;2023-05-07T04:58:22;9.40;99.90
77865;DHT22;67061;48.524;9.040;2023-05-07T05:00:49;9.40;99.90
77865;DHT22;67061;48.524;9.040;2023-05-07T05:03:16;9.50;99.90
77865;DHT22;67061;48.524;9.040;2023-05-07T05:05:43;9.50;99.90
77865;DHT22;67061;48.524;9.040;2023-05-07T05:08:11;9.50;99.90
77865;DHT22;67061;48.524;9.040;2023-05-07T05:10:38;9.60;99.90
77865;DHT22;67061;48.524;9.040;2023-05-07T05:13:06;9.60;99.90
77865;DHT22;67061;48.524;9.040;2023-05-07T05:15:34;9.60;99.90
77865;DHT22;67061;48.524;9.040;2023-05-07T05:18:01;9.70;99.90
77865;DHT22;67061;48.524;9.040;2023-05-07T05:20:27;9.80;99.90
77865;DHT22;67061;48.524;9.040;2023-05-07T05:22:55;10.00;99.90
77865;DHT22;67061;48.524;9.040;2023-05-07T05:25:23;10.10;99.90
77865;DHT22;67061;48.524;9.040;2023-05-07T05:27:50;10.20;99.90
77865;DHT22;67061;48.524;9.040;2023-05-07T05:30:17;10.30;99.90
77865;DHT22;67061;48.524;9.040;2023-05-07T05:32:44;10.50;99.90
77865;DHT22;67061;48.524;9.040;2023-05-07T05:35:11;10.60;99.90
77865;DHT22;67061;48.524;9.040;2023-05-07T05:37:37;10.70;99.80
77865;DHT22;67061;48.524;9.040;2023-05-07T05:40:05;10.80;99.40
77865;DHT22;67061;48.524;9.040;2023-05-07T05:42:34;10.90;99.10
77865;DHT22;67061;48.524;9.040;2023-05-07T05:45:01;11.00;98.40
77865;DHT22;67061;48.524;9.040;2023-05-07T05:47:27;11.10;97.20
77865;DHT22;67061;48.524;9.040;2023-05-07T05:49:54;11.10;97.00
77865;DHT22;67061;48.524;9.040;2023-05-07T05:52:21;11.10;96.70
77865;DHT22;67061;48.524;9.040;2023-05-07T05:54:49;11.20;96.90
77865;DHT22;67061;48.524;9.040;2023-05-07T05:57:16;11.30;97.10
77865;DHT22;67061;48.524;9.040;2023-05-07T05:59:44;11.40;97.00
77865;DHT22;67061;48.524;9.040;2023-05-07T06:02:12;11.40;96.10
77865;DHT22;67061;48.524;9.040;2023-05-07T06:04:39;11.50;95.90
77865;DHT22;67061;48.524;9.040;2023-05-07T06:07:08;11.50;95.70
77865;DHT22;67061;48.524;9.040;2023-05-07T06:09:35;11.60;95.20
77865;DHT22;67061;48.524;9.040;2023-05-07T06:12:01;11.70;95.90
77865;DHT22;67061;48.524;9.040;2023-05-07T06:14:28;11.70;95.10
77865;DHT22;67061;48.524;9.040;2023-05-07T06:16:57;11.80;94.30
77865;DHT22;67061;48.524;9.040;2023-05-07T06:19:23;11.90;94.70
77865;DHT22;67061;48.524;9.040;2023-05-07T06:21:52;12.10;94.70
77865;DHT22;67061;48.524;9.040;2023-05-07T06:24:19;12.30;94.00
77865;DHT22;67061;48.524;9.040;2023-05-07T06:26:46;12.30;93.40
77865;DHT22;67061;48.524;9.040;2023-05-07T06:29:12;12.50;94.20
77865;DHT22;67061;48.524;9.040;2023-05-07T06:31:40;12.50;92.80
77865;DHT22;67061;48.524;9.040;2023-05-07T06:34:08;12.60;93.00
77865;DHT22;67061;48.524;9.040;2023-05-07T06:36:35;12.60;92.00
77865;DHT22;67061;48.524;9.040;2023-05-07T06:39:02;12.70;92.30
77865;DHT22;67061;48.524;9.040;2023-05-07T06:41:29;12.70;92.50
77865;DHT22;67061;48.524;9.040;2023-05-07T06:43:56;12.80;92.50
77865;DHT22;67061;48.524;9.040;2023-05-07T06:46:23;12.90;92.80
77865;DHT22;67061;48.524;9.040;2023-05-07T06:48:49;12.90;92.50
77865;DHT22;67061;48.524;9.040;2023-05-07T06:51:19;13.00;92.10
77865;DHT22;67061;48.524;9.040;2023-05-07T06:53:45;13.10;90.70
77865;DHT22;67061;48.524;9.040;2023-05-07T06:56:12;13.10;90.10
77865;DHT22;67061;48.524;9.040;2023-05-07T06:58:39;13.10;90.50
77865;DHT22;67061;48.524;9.040;2023-05-07T07:01:06;13.10;91.60
77865;DHT22;67061;48.524;9.040;2023-05-07T07:03:33;13.30;91.10
77865;DHT22;67061;48.524;9.040;2023-05-07T07:06:00;13.30;90.40
77865;DHT22;67061;48.524;9.040;2023-05-07T07:08:29;13.30;90.80
77865;DHT22;67061;48.524;9.040;2023-05-07T07:10:56;13.30;90.20
77865;DHT22;67061;48.524;9.040;2023-05-07T07:13:23;13.30;89.50
77865;DHT22;67061;48.524;9.040;2023-05-07T07:15:51;13.50;90.30
77865;DHT22;67061;48.524;9.040;2023-05-07T07:18:18;13.60;89.80
77865;DHT22;67061;48.524;9.040;2023-05-07T07:20:45;13.80;89.60
77865;DHT22;67061;48.524;9.040;2023-05-07T07:23:12;14.00;87.80
77865;DHT22;67061;48.524;9.040;2023-05-07T07:25:41;14.10;86.70
77865;DHT22;67061;48.524;9.040;2023-05-07T07:28:07;14.30;86.10
77865;DHT22;67061;48.524;9.040;2023-05-07T07:30:36;14.40;84.30
77865;DHT22;67061;48.524;9.040;2023-05-07T07:33:03;14.50;83.90
77865;DHT22;67061;48.524;9.040;2023-05-07T07:35:30;14.70;83.40
77865;DHT22;67061;48.524;9.040;2023-05-07T07:37:57;14.80;83.60
77865;DHT22;67061;48.524;9.040;2023-05-07T07:40:24;14.90;82.90
77865;DHT22;67061;48.524;9.040;2023-05-07T07:42:53;15.00;82.90
77865;DHT22;67061;48.524;9.040;2023-05-07T07:45:20;15.00;83.00
77865;DHT22;67061;48.524;9.040;2023-05-07T07:47:47;15.00;83.50
77865;DHT22;67061;48.524;9.040;2023-05-07T07:50:14;15.20;84.00
77865;DHT22;67061;48.524;9.040;2023-05-07T07:52:41;15.20;83.10
77865;DHT22;67061;48.524;9.040;2023-05-07T07:55:08;15.30;84.60
77865;DHT22;67061;48.524;9.040;2023-05-07T07:57:35;15.30;83.10
77865;DHT22;67061;48.524;9.040;2023-05-07T08:00:05;15.30;83.70
77865;DHT22;67061;48.524;9.040;2023-05-07T08:02:32;15.40;83.90
77865;DHT22;67061;48.524;9.040;2023-05-07T08:04:59;15.40;82.70
77865;DHT22;67061;48.524;9.040;2023-05-07T08:07:26;15.40;82.70
77865;DHT22;67061;48.524;9.040;2023-05-07T08:09:53;15.50;83.10
77865;DHT22;67061;48.524;9.040;2023-05-07T08:12:20;15.50;82.70
77865;DHT22;67061;48.524;9.040;2023-05-07T08:14:47;15.50;82.70
77865;DHT22;67061;48.524;9.040;2023-05-07T08:17:15;15.60;82.60
77865;DHT22;67061;48.524;9.040;2023-05-07T08:19:42;15.60;82.60
77865;DHT22;67061;48.524;9.040;2023-05-07T08:22:09;15.70;82.40
77865;DHT22;67061;48.524;9.040;2023-05-07T08:24:36;15.80;80.90
77865;DHT22;67061;48.524;9.040;2023-05-07T08:27:03;15.80;81.10
77865;DHT22;67061;48.524;9.040;2023-05-07T08:29:30;15.80;81.20
77865;DHT22;67061;48.524;9.040;2023-05-07T08:31:57;15.90;81.60
77865;DHT22;67061;48.524;9.040;2023-05-07T08:34:25;16.00;81.30
77865;DHT22;67061;48.524;9.040;2023-05-07T08:36:52;16.00;81.10
77865;DHT22;67061;48.524;9.040;2023-05-07T08:39:19;16.10;79.60
77865;DHT22;67061;48.524;9.040;2023-05-07T08:41:46;16.30;78.30
77865;DHT22;67061;48.524;9.040;2023-05-07T08:44:14;16.40;79.30
77865;DHT22;67061;48.524;9.040;2023-05-07T08:46:41;16.40;78.00
77865;DHT22;67061;48.524;9.040;2023-05-07T08:49:09;16.60;76.40
77865;DHT22;67061;48.524;9.040;2023-05-07T08:51:37;16.60;76.10
77865;DHT22;67061;48.524;9.040;2023-05-07T08:54:04;16.70;76.80
77865;DHT22;67061;48.524;9.040;2023-05-07T08:56:32;16.70;77.00
77865;DHT22;67061;48.524;9.040;2023-05-07T08:58:59;16.80;73.50
77865;DHT22;67061;48.524;9.040;2023-05-07T09:01:26;17.00;73.90
77865;DHT22;67061;48.524;9.040;2023-05-07T09:03:53;17.00;75.00
77865;DHT22;67061;48.524;9.040;2023-05-07T09:06:20;17.10;75.20
77865;DHT22;67061;48.524;9.040;2023-05-07T09:08:52;17.20;73.50
77865;DHT22;67061;48.524;9.040;2023-05-07T09:11:23;17.40;73.40
77865;DHT22;67061;48.524;9.040;2023-05-07T09:13:54;17.50;71.10
77865;DHT22;67061;48.524;9.040;2023-05-07T09:16:21;17.60;71.00
77865;DHT22;67061;48.524;9.040;2023-05-07T09:18:51;17.70;71.40
77865;DHT22;67061;48.524;9.040;2023-05-07T09:21:19;17.90;70.90
77865;DHT22;67061;48.524;9.040;2023-05-07T09:23:48;18.00;72.60
77865;DHT22;67061;48.524;9.040;2023-05-07T09:26:17;18.10;69.40
77865;DHT22;67061;48.524;9.040;2023-05-07T09:28:44;18.20;69.90
77865;DHT22;67061;48.524;9.040;2023-05-07T09:31:12;18.30;70.50
77865;DHT22;67061;48.524;9.040;2023-05-07T09:33:39;18.50;70.50
77865;DHT22;67061;48.524;9.040;2023-05-07T09:36:07;18.60;69.70
77865;DHT22;67061;48.524;9.040;2023-05-07T09:38:36;18.80;69.20
77865;DHT22;67061;48.524;9.040;2023-05-07T09:41:04;18.90;68.90
77865;DHT22;67061;48.524;9.040;2023-05-07T09:43:34;19.00;69.20
77865;DHT22;67061;48.524;9.040;2023-05-07T09:46:04;19.20;68.10
77865;DHT22;67061;48.524;9.040;2023-05-07T09:48:36;19.40;66.90
77865;DHT22;67061;48.524;9.040;2023-05-07T09:51:08;19.50;66.80
77865;DHT22;67061;48.524;9.040;2023-05-07T09:53:37;19.50;67.70
77865;DHT22;67061;48.524;9.040;2023-05-07T09:56:06;19.40;67.10
77865;DHT22;67061;48.524;9.040;2023-05-07T09:58:37;19.50;68.00
77865;DHT22;67061;48.524;9.040;2023-05-07T10:01:05;19.70;67.50
77865;DHT22;67061;48.524;9.040;2023-05-07T10:03:33;19.70;66.80
77865;DHT22;67061;48.524;9.040;2023-05-07T10:06:02;19.70;67.30
77865;DHT22;67061;48.524;9.040;2023-05-07T10:08:30;19.90;67.40
77865;DHT22;67061;48.524;9.040;2023-05-07T10:10:59;20.00;66.60
77865;DHT22;67061;48.524;9.040;2023-05-07T10:13:26;20.10;67.40
77865;DHT22;67061;48.524;9.040;2023-05-07T10:15:55;20.20;65.50
77865;DHT22;67061;48.524;9.040;2023-05-07T10:18:22;20.30;66.20
77865;DHT22;67061;48.524;9.040;2023-05-07T10:20:58;20.50;66.00
77865;DHT22;67061;48.524;9.040;2023-05-07T10:23:27;20.70;66.00
77865;DHT22;67061;48.524;9.040;2023-05-07T10:25:55;20.80;62.00
77865;DHT22;67061;48.524;9.040;2023-05-07T10:28:24;20.80;63.60
77865;DHT22;67061;48.524;9.040;2023-05-07T10:31:01;20.90;62.60
77865;DHT22;67061;48.524;9.040;2023-05-07T10:33:31;21.00;62.50
77865;DHT22;67061;48.524;9.040;2023-05-07T10:35:59;21.00;62.30
77865;DHT22;67061;48.524;9.040;2023-05-07T10:38:27;21.10;61.30
77865;DHT22;67061;48.524;9.040;2023-05-07T10:40:54;21.10;61.10
77865;DHT22;67061;48.524;9.040;2023-05-07T10:43:21;21.30;59.70
77865;DHT22;67061;48.524;9.040;2023-05-07T10:46:11;21.30;63.50
77865;DHT22;67061;48.524;9.040;2023-05-07T10:49:11;21.40;59.80
77865;DHT22;67061;48.524;9.040;2023-05-07T10:51:39;21.50;57.90
77865;DHT22;67061;48.524;9.040;2023-05-07T10:54:22;21.70;60.30
77865;DHT22;67061;48.524;9.040;2023-05-07T10:56:49;21.60;57.30
77865;DHT22;67061;48.524;9.040;2023-05-07T10:59:35;21.70;60.10
77865;DHT22;67061;48.524;9.040;2023-05-07T11:02:08;21.70;57.80
77865;DHT22;67061;48.524;9.040;2023-05-07T11:04:37;21.90;58.90
77865;DHT22;67061;48.524;9.040;2023-05-07T11:07:31;22.00;59.10
77865;DHT22;67061;48.524;9.040;2023-05-07T11:10:00;22.50;54.80
77865;DHT22;67061;48.524;9.040;2023-05-07T11:12:54;22.60;54.80
77865;DHT22;67061;48.524;9.040;2023-05-07T11:15:48;22.80;53.70
77865;DHT22;67061;48.524;9.040;2023-05-07T11:18:18;22.90;54.10
77865;DHT22;67061;48.524;9.040;2023-05-07T11:20:54;23.10;55.00
77865;DHT22;67061;48.524;9.040;2023-05-07T11:23:56;23.30;53.20
77865;DHT22;67061;48.524;9.040;2023-05-07T11:26:24;23.40;50.50
77865;DHT22;67061;48.524;9.040;2023-05-07T11:28:52;23.30;53.00
77865;DHT22;67061;48.524;9.040;2023-05-07T11:31:24;23.20;52.10
77865;DHT22;67061;48.524;9.040;2023-05-07T11:33:54;23.10;53.70
77865;DHT22;67061;48.524;9.040;2023-05-07T11:36:22;23.00;54.10
77865;DHT22;67061;48.524;9.040;2023-05-07T11:38:49;22.90;52.20
77865;DHT22;67061;48.524;9.040;2023-05-07T11:41:16;22.80;54.20
77865;DHT22;67061;48.524;9.040;2023-05-07T11:43:58;22.80;53.40
77865;DHT22;67061;48.524;9.040;2023-05-07T11:46:27;22.70;53.00
77865;DHT22;67061;48.524;9.040;2023-05-07T11:48:55;22.60;52.10
77865;DHT22;67061;48.524;9.040;2023-05-07T11:51:23;22.50;51.60
77865;DHT22;67061;48.524;9.040;2023-05-07T11:53:51;22.40;54.30
77865;DHT22;67061;48.524;9.040;2023-05-07T11:56:19;22.30;55.00
77865;DHT22;67061;48.524;9.040;2023-05-07T11:58:47;22.20;54.70
77865;DHT22;67061;48.524;9.040;2023-05-07T12:01:15;22.10;57.00
77865;DHT22;67061;48.524;9.040;2023-05-07T12:03:45;22.00;55.60
77865;DHT22;67061;48.524;9.040;2023-05-07T12:06:15;21.90;55.20
77865;DHT22;67061;48.524;9.040;2023-05-07T12:08:43;21.80;57.30
77865;DHT22;67061;48.524;9.040;2023-05-07T12:11:13;21.70;56.70
77865;DHT22;67061;48.524;9.040;2023-05-07T12:13:42;21.70;58.20
77865;DHT22;67061;48.524;9.040;2023-05-07T12:16:09;21.50;57.70
77865;DHT22;67061;48.524;9.040;2023-05-07T12:18:36;21.40;58.20
77865;DHT22;67061;48.524;9.040;2023-05-07T12:21:05;21.20;59.60
77865;DHT22;67061;48.524;9.040;2023-05-07T12:23:34;21.00;60.30
77865;DHT22;67061;48.524;9.040;2023-05-07T12:26:02;20.80;61.70
77865;DHT22;67061;48.524;9.040;2023-05-07T12:28:29;20.70;62.40
77865;DHT22;67061;48.524;9.040;2023-05-07T12:30:57;20.70;63.90
77865;DHT22;67061;48.524;9.040;2023-05-07T12:33:25;20.50;63.60
77865;DHT22;67061;48.524;9.040;2023-05-07T12:35:54;20.30;66.10
77865;DHT22;67061;48.524;9.040;2023-05-07T12:38:22;20.20;65.60
77865;DHT22;67061;48.524;9.040;2023-05-07T12:40:54;20.10;65.10
77865;DHT22;67061;48.524;9.040;2023-05-07T12:43:23;20.00;63.50
77865;DHT22;67061;48.524;9.040;2023-05-07T12:45:53;19.80;62.40
77865;DHT22;67061;48.524;9.040;2023-05-07T12:48:21;19.60;63.80
77865;DHT22;67061;48.524;9.040;2023-05-07T12:50:49;19.40;64.20
77865;DHT22;67061;48.524;9.040;2023-05-07T12:53:17;19.30;66.40
77865;DHT22;67061;48.524;9.040;2023-05-07T12:55:47;19.00;66.20
77865;DHT22;67061;48.524;9.040;2023-05-07T12:58:16;18.90;66.40
77865;DHT22;67061;48.524;9.040;2023-05-07T13:00:44;18.60;67.20
77865;DHT22;67061;48.524;9.040;2023-05-07T13:03:11;18.40;69.80
77865;DHT22;67061;48.524;9.040;2023-05-07T13:05:39;18.00;73.90
77865;DHT22;67061;48.524;9.040;2023-05-07T13:08:06;17.40;79.70
77865;DHT22;67061;48.524;9.040;2023-05-07T13:10:35;16.80;83.50
77865;DHT22;67061;48.524;9.040;2023-05-07T13:13:02;16.40;89.50
77865;DHT22;67061;48.524;9.040;2023-05-07T13:15:30;16.00;93.20
77865;DHT22;67061;48.524;9.040;2023-05-07T13:17:57;15.70;96.10
77865;DHT22;67061;48.524;9.040;2023-05-07T13:20:24;15.50;98.20
77865;DHT22;67061;48.524;9.040;2023-05-07T13:22:51;15.30;99.60
77865;DHT22;67061;48.524;9.040;2023-05-07T13:25:18;15.10;99.20
77865;DHT22;67061;48.524;9.040;2023-05-07T13:27:45;15.00;99.50
77865;DHT22;67061;48.524;9.040;2023-05-07T13:30:12;15.00;99.90
77865;DHT22;67061;48.524;9.040;2023-05-07T13:32:40;14.80;99.90
77865;DHT22;67061;48.524;9.040;2023-05-07T13:35:08;14.80;99.90
77865;DHT22;67061;48.524;9.040;2023-05-07T13:37:35;14.70;99.90
77865;DHT22;67061;48.524;9.040;2023-05-07T13:40:02;14.70;99.90
77865;DHT22;67061;48.524;9.040;2023-05-07T13:42:30;14.60;99.90
77865;DHT22;67061;48.524;9.040;2023-05-07T13:44:57;14.60;99.90
77865;DHT22;67061;48.524;9.040;2023-05-07T13:47:24;14.50;99.90
77865;DHT22;67061;48.524;9.040;2023-05-07T13:49:52;14.50;99.90
77865;DHT22;67061;48.524;9.040;2023-05-07T13:52:19;14.50;99.90
77865;DHT22;67061;48.524;9.040;2023-05-07T13:54:46;14.50;99.90
77865;DHT22;67061;48.524;9.040;2023-05-07T13:57:13;14.40;99.90
77865;DHT22;67061;48.524;9.040;2023-05-07T13:59:40;14.40;99.90
77865;DHT22;67061;48.524;9.040;2023-05-07T14:02:07;14.30;99.90
77865;DHT22;67061;48.524;9.040;2023-05-07T14:04:35;14.30;99.90
77865;DHT22;67061;48.524;9.040;2023-05-07T14:07:04;14.20;99.90
77865;DHT22;67061;48.524;9.040;2023-05-07T14:09:31;14.20;99.90
77865;DHT22;67061;48.524;9.040;2023-05-07T14:11:59;14.10;99.90
77865;DHT22;67061;48.524;9.040;2023-05-07T14:14:27;14.00;99.90
77865;DHT22;67061;48.524;9.040;2023-05-07T14:16:54;14.00;99.90
77865;DHT22;67061;48.524;9.040;2023-05-07T14:19:20;14.00;99.90
77865;DHT22;67061;48.524;9.040;2023-05-07T14:21:48;13.90;99.90
77865;DHT22;67061;48.524;9.040;2023-05-07T14:24:17;13.90;99.90
77865;DHT22;67061;48.524;9.040;2023-05-07T14:26:43;13.90;99.90
77865;DHT22;67061;48.524;9.040;2023-05-07T14:29:11;13.90;99.90
77865;DHT22;67061;48.524;9.040;2023-05-07T14:31:38;13.90;99.90
77865;DHT22;67061;48.524;9.040;2023-05-07T14:34:05;13.90;99.90
77865;DHT22;67061;48.524;9.040;2023-05-07T14:36:32;14.00;99.90
77865;DHT22;67061;48.524;9.040;2023-05-07T14:38:58;14.00;99.90
77865;DHT22;67061;48.524;9.040;2023-05-07T14:41:27;13.90;99.90
77865;DHT22;67061;48.524;9.040;2023-05-07T14:43:54;13.90;99.90
77865;DHT22;67061;48.524;9.040;2023-05-07T14:46:22;14.00;99.90
77865;DHT22;67061;48.524;9.040;2023-05-07T14:48:49;14.00;99.90
77865;DHT22;67061;48.524;9.040;2023-05-07T14:51:16;14.10;99.90
77865;DHT22;67061;48.524;9.040;2023-05-07T14:53:43;14.20;99.90
77865;DHT22;67061;48.524;9.040;2023-05-07T14:56:10;14.30;99.90
77865;DHT22;67061;48.524;9.040;2023-05-07T14:58:38;14.30;99.90
77865;DHT22;67061;48.524;9.040;2023-05-07T15:01:05;14.20;99.90
77865;DHT22;67061;48.524;9.040;2023-05-07T15:03:32;14.20;99.90
77865;DHT22;67061;48.524;9.040;2023-05-07T15:05:59;14.30;99.90
77865;DHT22;67061;48.524;9.040;2023-05-07T15:08:26;14.30;99.90
77865;DHT22;67061;48.524;9.040;2023-05-07T15:10:53;14.50;99.90
77865;DHT22;67061;48.524;9.040;2023-05-07T15:13:21;14.60;99.90
77865;DHT22;67061;48.524;9.040;2023-05-07T15:15:49;14.70;99.90
77865;DHT22;67061;48.524;9.040;2023-05-07T15:18:16;14.70;99.90
77865;DHT22;67061;48.524;9.040;2023-05-07T15:20:43;14.80;99.90
77865;DHT22;67061;48.524;9.040;2023-05-07T15:23:10;14.80;99.90
77865;DHT22;67061;48.524;9.040;2023-05-07T15:25:37;14.80;99.90
77865;DHT22;67061;48.524;9.040;2023-05-07T15:28:04;14.90;99.90
77865;DHT22;67061;48.524;9.040;2023-05-07T15:30:31;14.90;99.90
77865;DHT22;67061;48.524;9.040;2023-05-07T15:33:01;14.90;99.90
77865;DHT22;67061;48.524;9.040;2023-05-07T15:35:29;14.90;99.90
77865;DHT22;67061;48.524;9.040;2023-05-07T15:37:55;14.90;99.90